This is the latest recevied weather packets stored in our database for station/object DG3RAP-11. If no packets are shown the sender has not sent any weather packets the latest 10 day(s).
| Time | Temp. | Humidity | Pressure | Rain* | Wind** | Luminosity | Snow |
|---|---|---|---|---|---|---|---|
| 1777604403 | 5.56° C | 54% | 1026.9 hPa | 0 mm | - | - | - |
| 1777604043 | 5.56° C | 53% | 1026.7 hPa | 0 mm | - | - | - |
| 1777603503 | 5.56° C | 53% | 1027 hPa | 0 mm | - | - | - |
| 1777602963 | 5.56° C | 53% | 1026.9 hPa | 0 mm | - | - | - |
| 1777602423 | 5° C | 55% | 1027 hPa | 0 mm | - | - | - |
| 1777601883 | 5° C | 55% | 1027 hPa | 0 mm | - | - | - |
| 1777586944 | 9.44° C | 36% | 1027.2 hPa | 0 mm | - | - | - |
| 1777583883 | 9.44° C | 35% | 1027 hPa | 0 mm | - | - | - |
| 1777580824 | 10° C | 33% | 1026.7 hPa | 0 mm | - | - | - |
| 1777580283 | 10.56° C | 33% | 1026.7 hPa | 0 mm | - | - | - |
| 1777579743 | 10.56° C | 32% | 1027 hPa | 0 mm | - | - | - |
| 1777578843 | 10.56° C | 32% | 1026.8 hPa | 0 mm | - | - | - |
| 1777577763 | 10.56° C | 31% | 1026.7 hPa | 0 mm | - | - | - |
| 1777577223 | 11.11° C | 31% | 1026.7 hPa | 0 mm | - | - | - |
| 1777576143 | 11.11° C | 30% | 1026.5 hPa | 0 mm | - | - | - |
| 1777572543 | 12.22° C | 28% | 1025.9 hPa | 0 mm | - | - | - |
| 1777571643 | 12.78° C | 27% | 1025.9 hPa | 0 mm | - | - | - |
| 1777570563 | 13.33° C | 27% | 1026 hPa | 0 mm | - | - | - |
| 1777568943 | 13.89° C | 27% | 1025.7 hPa | 0 mm | - | - | - |
| 1777566963 | 14.44° C | 26% | 1025.7 hPa | 0 mm | - | - | - |
| 1777563363 | 14.44° C | 26% | 1025.8 hPa | 0 mm | - | - | - |
| 1777561743 | 14.44° C | 26% | 1025.8 hPa | 0 mm | - | - | - |
| 1777561204 | 14.44° C | 27% | 1025.9 hPa | 0 mm | - | - | - |
| 1777557243 | 15° C | 27% | 1026.2 hPa | 0 mm | - | - | - |
| 1777556163 | 14.44° C | 27% | 1026.1 hPa | 0 mm | - | - | - |
* Rain latest hour (hover to see other rain measurements)
** Current wind speed in m/s (hover to see current wind gust speed)